sensor_id;sensor_type;location;lat;lon;timestamp;temperature;humidity
52643;DHT22;38531;53.296;6.614;2024-03-08T00:00:23;2.20;99.90
52643;DHT22;38531;53.296;6.614;2024-03-08T00:02:49;1.30;99.90
52643;DHT22;38531;53.296;6.614;2024-03-08T00:05:17;1.90;99.90
52643;DHT22;38531;53.296;6.614;2024-03-08T00:07:45;1.80;99.90
52643;DHT22;38531;53.296;6.614;2024-03-08T00:10:12;1.30;99.90
52643;DHT22;38531;53.296;6.614;2024-03-08T00:12:45;1.80;99.90
52643;DHT22;38531;53.296;6.614;2024-03-08T00:15:16;1.20;99.90
52643;DHT22;38531;53.296;6.614;2024-03-08T00:17:43;1.10;99.90
52643;DHT22;38531;53.296;6.614;2024-03-08T00:20:09;1.10;99.90
52643;DHT22;38531;53.296;6.614;2024-03-08T00:22:38;1.10;99.90
52643;DHT22;38531;53.296;6.614;2024-03-08T00:25:05;1.10;99.90
52643;DHT22;38531;53.296;6.614;2024-03-08T00:27:34;1.10;99.90
52643;DHT22;38531;53.296;6.614;2024-03-08T00:30:00;1.50;99.90
52643;DHT22;38531;53.296;6.614;2024-03-08T00:32:26;1.00;99.90
52643;DHT22;38531;53.296;6.614;2024-03-08T00:34:56;1.70;99.90
52643;DHT22;38531;53.296;6.614;2024-03-08T00:37:21;1.70;99.90
52643;DHT22;38531;53.296;6.614;2024-03-08T00:39:48;1.00;99.90
52643;DHT22;38531;53.296;6.614;2024-03-08T00:42:20;1.00;99.90
52643;DHT22;38531;53.296;6.614;2024-03-08T00:44:46;0.90;99.90
52643;DHT22;38531;53.296;6.614;2024-03-08T00:47:13;1.70;99.90
52643;DHT22;38531;53.296;6.614;2024-03-08T00:49:41;0.90;99.90
52643;DHT22;38531;53.296;6.614;2024-03-08T00:52:07;1.40;99.90
52643;DHT22;38531;53.296;6.614;2024-03-08T00:54:36;0.90;99.90
52643;DHT22;38531;53.296;6.614;2024-03-08T00:57:05;1.50;99.90
52643;DHT22;38531;53.296;6.614;2024-03-08T00:59:32;0.80;99.90
52643;DHT22;38531;53.296;6.614;2024-03-08T01:02:01;0.90;99.90
52643;DHT22;38531;53.296;6.614;2024-03-08T01:04:27;0.80;99.90
52643;DHT22;38531;53.296;6.614;2024-03-08T01:06:56;0.80;99.90
52643;DHT22;38531;53.296;6.614;2024-03-08T01:09:26;0.90;99.90
52643;DHT22;38531;53.296;6.614;2024-03-08T01:11:55;0.90;99.90
52643;DHT22;38531;53.296;6.614;2024-03-08T01:14:22;0.70;99.90
52643;DHT22;38531;53.296;6.614;2024-03-08T01:16:49;1.20;99.90
52643;DHT22;38531;53.296;6.614;2024-03-08T01:19:15;0.70;99.90
52643;DHT22;38531;53.296;6.614;2024-03-08T01:21:41;0.80;99.90
52643;DHT22;38531;53.296;6.614;2024-03-08T01:24:07;0.70;99.90
52643;DHT22;38531;53.296;6.614;2024-03-08T01:26:33;0.70;99.90
52643;DHT22;38531;53.296;6.614;2024-03-08T01:29:02;1.10;99.90
52643;DHT22;38531;53.296;6.614;2024-03-08T01:31:32;0.70;99.90
52643;DHT22;38531;53.296;6.614;2024-03-08T01:34:01;0.50;99.90
52643;DHT22;38531;53.296;6.614;2024-03-08T01:36:26;1.30;99.90
52643;DHT22;38531;53.296;6.614;2024-03-08T01:38:52;1.10;99.90
52643;DHT22;38531;53.296;6.614;2024-03-08T01:41:21;0.80;99.90
52643;DHT22;38531;53.296;6.614;2024-03-08T01:43:46;0.80;99.90
52643;DHT22;38531;53.296;6.614;2024-03-08T01:46:15;0.50;99.90
52643;DHT22;38531;53.296;6.614;2024-03-08T01:48:42;0.70;99.90
52643;DHT22;38531;53.296;6.614;2024-03-08T01:51:08;0.50;99.90
52643;DHT22;38531;53.296;6.614;2024-03-08T01:53:35;1.10;99.90
52643;DHT22;38531;53.296;6.614;2024-03-08T01:56:02;0.50;99.90
52643;DHT22;38531;53.296;6.614;2024-03-08T01:58:29;0.50;99.90
52643;DHT22;38531;53.296;6.614;2024-03-08T02:00:56;-0.50;99.90
52643;DHT22;38531;53.296;6.614;2024-03-08T02:03:22;1.20;99.90
52643;DHT22;38531;53.296;6.614;2024-03-08T02:05:49;1.30;99.90
52643;DHT22;38531;53.296;6.614;2024-03-08T02:08:16;1.00;99.90
52643;DHT22;38531;53.296;6.614;2024-03-08T02:10:43;0.90;99.90
52643;DHT22;38531;53.296;6.614;2024-03-08T02:13:09;1.30;99.90
52643;DHT22;38531;53.296;6.614;2024-03-08T02:15:55;1.50;99.90
52643;DHT22;38531;53.296;6.614;2024-03-08T02:18:22;0.40;99.90
52643;DHT22;38531;53.296;6.614;2024-03-08T02:20:58;-0.90;99.90
52643;DHT22;38531;53.296;6.614;2024-03-08T02:23:24;0.40;99.90
52643;DHT22;38531;53.296;6.614;2024-03-08T02:25:51;0.70;99.90
52643;DHT22;38531;53.296;6.614;2024-03-08T02:28:17;0.50;99.90
52643;DHT22;38531;53.296;6.614;2024-03-08T02:30:46;0.70;99.90
52643;DHT22;38531;53.296;6.614;2024-03-08T02:33:17;0.40;99.90
52643;DHT22;38531;53.296;6.614;2024-03-08T02:35:44;0.30;99.90
52643;DHT22;38531;53.296;6.614;2024-03-08T02:38:17;0.30;99.90
52643;DHT22;38531;53.296;6.614;2024-03-08T02:40:48;0.30;99.90
52643;DHT22;38531;53.296;6.614;2024-03-08T02:43:15;1.10;99.90
52643;DHT22;38531;53.296;6.614;2024-03-08T02:45:41;0.80;99.90
52643;DHT22;38531;53.296;6.614;2024-03-08T02:48:11;0.30;99.90
52643;DHT22;38531;53.296;6.614;2024-03-08T02:50:37;1.50;99.90
52643;DHT22;38531;53.296;6.614;2024-03-08T02:53:05;0.70;99.90
52643;DHT22;38531;53.296;6.614;2024-03-08T02:55:31;0.90;99.90
52643;DHT22;38531;53.296;6.614;2024-03-08T02:57:59;0.20;99.90
52643;DHT22;38531;53.296;6.614;2024-03-08T03:00:24;1.10;99.90
52643;DHT22;38531;53.296;6.614;2024-03-08T03:02:50;0.90;99.90
52643;DHT22;38531;53.296;6.614;2024-03-08T03:05:22;1.50;99.90
52643;DHT22;38531;53.296;6.614;2024-03-08T03:07:48;0.10;99.90
52643;DHT22;38531;53.296;6.614;2024-03-08T03:10:16;0.80;99.90
52643;DHT22;38531;53.296;6.614;2024-03-08T03:12:42;0.10;99.90
52643;DHT22;38531;53.296;6.614;2024-03-08T03:15:08;1.00;99.90
52643;DHT22;38531;53.296;6.614;2024-03-08T03:17:34;0.10;99.90
52643;DHT22;38531;53.296;6.614;2024-03-08T03:20:00;0.70;99.90
52643;DHT22;38531;53.296;6.614;2024-03-08T03:22:30;0.00;99.90
52643;DHT22;38531;53.296;6.614;2024-03-08T03:24:56;0.80;99.90
52643;DHT22;38531;53.296;6.614;2024-03-08T03:27:23;0.70;99.90
52643;DHT22;38531;53.296;6.614;2024-03-08T03:29:50;0.20;99.90
52643;DHT22;38531;53.296;6.614;2024-03-08T03:32:17;0.70;99.90
52643;DHT22;38531;53.296;6.614;2024-03-08T03:34:44;0.10;99.90
52643;DHT22;38531;53.296;6.614;2024-03-08T03:37:10;0.00;99.90
52643;DHT22;38531;53.296;6.614;2024-03-08T03:39:40;1.00;99.90
52643;DHT22;38531;53.296;6.614;2024-03-08T03:42:17;0.00;99.90
52643;DHT22;38531;53.296;6.614;2024-03-08T03:44:47;-0.10;99.90
52643;DHT22;38531;53.296;6.614;2024-03-08T03:47:15;0.20;99.90
52643;DHT22;38531;53.296;6.614;2024-03-08T03:49:43;0.60;99.90
52643;DHT22;38531;53.296;6.614;2024-03-08T03:52:10;0.60;99.90
52643;DHT22;38531;53.296;6.614;2024-03-08T03:54:36;-0.10;99.90
52643;DHT22;38531;53.296;6.614;2024-03-08T03:57:02;0.90;99.90
52643;DHT22;38531;53.296;6.614;2024-03-08T03:59:29;0.00;99.90
52643;DHT22;38531;53.296;6.614;2024-03-08T04:01:54;-0.10;99.90
52643;DHT22;38531;53.296;6.614;2024-03-08T04:04:23;1.20;99.90
52643;DHT22;38531;53.296;6.614;2024-03-08T04:06:50;0.40;99.90
52643;DHT22;38531;53.296;6.614;2024-03-08T04:09:16;1.30;99.90
52643;DHT22;38531;53.296;6.614;2024-03-08T04:11:45;1.20;99.90
52643;DHT22;38531;53.296;6.614;2024-03-08T04:14:10;1.20;99.90
52643;DHT22;38531;53.296;6.614;2024-03-08T04:16:37;0.90;99.90
52643;DHT22;38531;53.296;6.614;2024-03-08T04:19:03;0.20;99.90
52643;DHT22;38531;53.296;6.614;2024-03-08T04:21:32;-0.20;99.90
52643;DHT22;38531;53.296;6.614;2024-03-08T04:23:58;0.40;99.90
52643;DHT22;38531;53.296;6.614;2024-03-08T04:26:24;0.80;99.90
52643;DHT22;38531;53.296;6.614;2024-03-08T04:28:51;0.40;99.90
52643;DHT22;38531;53.296;6.614;2024-03-08T04:31:17;0.60;99.90
52643;DHT22;38531;53.296;6.614;2024-03-08T04:33:43;1.00;99.90
52643;DHT22;38531;53.296;6.614;2024-03-08T04:36:10;1.30;99.90
52643;DHT22;38531;53.296;6.614;2024-03-08T04:38:42;1.30;99.90
52643;DHT22;38531;53.296;6.614;2024-03-08T04:41:08;0.40;99.90
52643;DHT22;38531;53.296;6.614;2024-03-08T04:43:34;-0.20;99.90
52643;DHT22;38531;53.296;6.614;2024-03-08T04:46:00;0.30;99.90
52643;DHT22;38531;53.296;6.614;2024-03-08T04:52:06;-0.30;99.90
52643;DHT22;38531;53.296;6.614;2024-03-08T04:54:32;0.20;99.90
52643;DHT22;38531;53.296;6.614;2024-03-08T04:56:58;0.30;99.90
52643;DHT22;38531;53.296;6.614;2024-03-08T04:59:27;1.00;99.90
52643;DHT22;38531;53.296;6.614;2024-03-08T05:01:53;0.30;99.90
52643;DHT22;38531;53.296;6.614;2024-03-08T05:04:19;-0.10;99.90
52643;DHT22;38531;53.296;6.614;2024-03-08T05:06:44;-0.10;99.90
52643;DHT22;38531;53.296;6.614;2024-03-08T05:09:10;0.80;99.90
52643;DHT22;38531;53.296;6.614;2024-03-08T05:11:45;0.60;99.90
52643;DHT22;38531;53.296;6.614;2024-03-08T05:14:13;0.60;99.90
52643;DHT22;38531;53.296;6.614;2024-03-08T05:16:44;0.20;99.90
52643;DHT22;38531;53.296;6.614;2024-03-08T05:19:19;0.70;99.90
52643;DHT22;38531;53.296;6.614;2024-03-08T05:21:46;-0.10;99.90
52643;DHT22;38531;53.296;6.614;2024-03-08T05:24:12;0.60;99.90
52643;DHT22;38531;53.296;6.614;2024-03-08T05:26:39;0.80;99.90
52643;DHT22;38531;53.296;6.614;2024-03-08T05:29:04;0.40;99.90
52643;DHT22;38531;53.296;6.614;2024-03-08T05:31:38;-0.10;99.90
52643;DHT22;38531;53.296;6.614;2024-03-08T05:34:08;-0.20;99.90
52643;DHT22;38531;53.296;6.614;2024-03-08T05:36:35;0.70;99.90
52643;DHT22;38531;53.296;6.614;2024-03-08T05:39:01;0.20;99.90
52643;DHT22;38531;53.296;6.614;2024-03-08T05:41:27;0.50;99.90
52643;DHT22;38531;53.296;6.614;2024-03-08T05:43:52;-0.20;99.90
52643;DHT22;38531;53.296;6.614;2024-03-08T05:46:19;0.60;99.90
52643;DHT22;38531;53.296;6.614;2024-03-08T05:48:45;0.10;99.90
52643;DHT22;38531;53.296;6.614;2024-03-08T05:51:10;0.60;99.90
52643;DHT22;38531;53.296;6.614;2024-03-08T05:53:37;0.70;99.90
52643;DHT22;38531;53.296;6.614;2024-03-08T05:56:03;0.50;99.90
52643;DHT22;38531;53.296;6.614;2024-03-08T05:58:29;-0.20;99.90
52643;DHT22;38531;53.296;6.614;2024-03-08T06:00:56;0.70;99.90
52643;DHT22;38531;53.296;6.614;2024-03-08T06:03:21;0.10;99.90
52643;DHT22;38531;53.296;6.614;2024-03-08T06:05:48;-0.20;99.90
52643;DHT22;38531;53.296;6.614;2024-03-08T06:08:14;-0.20;99.90
52643;DHT22;38531;53.296;6.614;2024-03-08T06:10:40;-0.20;99.90
52643;DHT22;38531;53.296;6.614;2024-03-08T06:13:06;-1.20;99.90
52643;DHT22;38531;53.296;6.614;2024-03-08T06:15:32;0.80;99.90
52643;DHT22;38531;53.296;6.614;2024-03-08T06:17:58;0.00;99.90
52643;DHT22;38531;53.296;6.614;2024-03-08T06:20:23;1.00;99.90
52643;DHT22;38531;53.296;6.614;2024-03-08T06:22:52;0.60;99.90
52643;DHT22;38531;53.296;6.614;2024-03-08T06:25:18;0.80;99.90
52643;DHT22;38531;53.296;6.614;2024-03-08T06:27:43;0.00;99.90
52643;DHT22;38531;53.296;6.614;2024-03-08T06:30:11;0.00;99.90
52643;DHT22;38531;53.296;6.614;2024-03-08T06:32:37;0.00;99.90
52643;DHT22;38531;53.296;6.614;2024-03-08T06:35:04;1.10;99.90
52643;DHT22;38531;53.296;6.614;2024-03-08T06:37:33;0.00;99.90
52643;DHT22;38531;53.296;6.614;2024-03-08T06:39:59;0.00;99.90
52643;DHT22;38531;53.296;6.614;2024-03-08T06:42:27;1.20;99.90
52643;DHT22;38531;53.296;6.614;2024-03-08T06:44:53;1.10;99.90
52643;DHT22;38531;53.296;6.614;2024-03-08T06:47:21;0.40;99.90
52643;DHT22;38531;53.296;6.614;2024-03-08T06:49:51;0.60;99.90
52643;DHT22;38531;53.296;6.614;2024-03-08T06:52:17;0.10;99.90
52643;DHT22;38531;53.296;6.614;2024-03-08T06:54:43;0.60;99.90
52643;DHT22;38531;53.296;6.614;2024-03-08T06:57:09;1.10;99.90
52643;DHT22;38531;53.296;6.614;2024-03-08T06:59:36;0.20;99.90
52643;DHT22;38531;53.296;6.614;2024-03-08T07:02:02;0.70;99.90
52643;DHT22;38531;53.296;6.614;2024-03-08T07:04:28;0.30;99.90
52643;DHT22;38531;53.296;6.614;2024-03-08T07:06:59;0.30;99.90
52643;DHT22;38531;53.296;6.614;2024-03-08T07:09:25;0.30;99.90
52643;DHT22;38531;53.296;6.614;2024-03-08T07:14:27;0.50;99.90
52643;DHT22;38531;53.296;6.614;2024-03-08T07:16:53;0.60;99.90
52643;DHT22;38531;53.296;6.614;2024-03-08T07:19:18;0.60;99.90
52643;DHT22;38531;53.296;6.614;2024-03-08T07:21:45;0.60;99.90
52643;DHT22;38531;53.296;6.614;2024-03-08T07:24:11;1.60;99.90
52643;DHT22;38531;53.296;6.614;2024-03-08T07:26:43;1.30;99.90
52643;DHT22;38531;53.296;6.614;2024-03-08T07:29:09;1.60;99.90
52643;DHT22;38531;53.296;6.614;2024-03-08T07:31:35;1.60;99.90
52643;DHT22;38531;53.296;6.614;2024-03-08T07:34:16;1.00;99.90
52643;DHT22;38531;53.296;6.614;2024-03-08T07:36:42;1.10;99.90
52643;DHT22;38531;53.296;6.614;2024-03-08T07:39:08;1.20;99.90
52643;DHT22;38531;53.296;6.614;2024-03-08T07:41:40;1.90;99.90
52643;DHT22;38531;53.296;6.614;2024-03-08T07:44:12;1.70;99.90
52643;DHT22;38531;53.296;6.614;2024-03-08T07:46:39;1.40;99.90
52643;DHT22;38531;53.296;6.614;2024-03-08T07:49:07;1.40;99.90
52643;DHT22;38531;53.296;6.614;2024-03-08T07:51:36;1.50;99.90
52643;DHT22;38531;53.296;6.614;2024-03-08T07:54:03;1.90;99.90
52643;DHT22;38531;53.296;6.614;2024-03-08T07:56:32;1.60;99.90
52643;DHT22;38531;53.296;6.614;2024-03-08T07:58:58;1.80;99.90
52643;DHT22;38531;53.296;6.614;2024-03-08T08:01:24;2.00;99.90
52643;DHT22;38531;53.296;6.614;2024-03-08T08:03:49;2.40;99.90
52643;DHT22;38531;53.296;6.614;2024-03-08T08:06:16;2.00;99.90
52643;DHT22;38531;53.296;6.614;2024-03-08T08:08:42;2.10;99.90
52643;DHT22;38531;53.296;6.614;2024-03-08T08:11:08;2.20;99.90
52643;DHT22;38531;53.296;6.614;2024-03-08T08:13:35;2.30;99.90
52643;DHT22;38531;53.296;6.614;2024-03-08T08:16:02;2.40;99.90
52643;DHT22;38531;53.296;6.614;2024-03-08T08:18:29;2.50;99.90
52643;DHT22;38531;53.296;6.614;2024-03-08T08:20:55;2.50;99.90
52643;DHT22;38531;53.296;6.614;2024-03-08T08:23:21;2.70;99.90
52643;DHT22;38531;53.296;6.614;2024-03-08T08:25:47;2.80;99.90
52643;DHT22;38531;53.296;6.614;2024-03-08T08:28:19;2.80;99.90
52643;DHT22;38531;53.296;6.614;2024-03-08T08:30:46;3.00;99.90
52643;DHT22;38531;53.296;6.614;2024-03-08T08:33:12;3.10;99.90
52643;DHT22;38531;53.296;6.614;2024-03-08T08:35:38;3.20;99.90
52643;DHT22;38531;53.296;6.614;2024-03-08T08:38:04;3.20;99.90
52643;DHT22;38531;53.296;6.614;2024-03-08T08:40:30;3.30;99.90
52643;DHT22;38531;53.296;6.614;2024-03-08T08:42:58;3.40;99.90
52643;DHT22;38531;53.296;6.614;2024-03-08T08:45:24;2.90;99.90
52643;DHT22;38531;53.296;6.614;2024-03-08T08:47:49;3.50;99.90
52643;DHT22;38531;53.296;6.614;2024-03-08T08:50:15;3.50;99.90
52643;DHT22;38531;53.296;6.614;2024-03-08T08:52:42;3.50;99.90
52643;DHT22;38531;53.296;6.614;2024-03-08T08:55:09;3.60;99.90
52643;DHT22;38531;53.296;6.614;2024-03-08T08:57:39;3.70;99.90
52643;DHT22;38531;53.296;6.614;2024-03-08T09:00:05;3.70;99.90
52643;DHT22;38531;53.296;6.614;2024-03-08T09:02:35;3.70;99.90
52643;DHT22;38531;53.296;6.614;2024-03-08T09:05:02;3.80;99.90
52643;DHT22;38531;53.296;6.614;2024-03-08T09:07:28;3.80;99.90
52643;DHT22;38531;53.296;6.614;2024-03-08T09:09:54;3.80;99.90
52643;DHT22;38531;53.296;6.614;2024-03-08T09:12:24;3.90;99.90
52643;DHT22;38531;53.296;6.614;2024-03-08T09:14:49;3.80;99.90
52643;DHT22;38531;53.296;6.614;2024-03-08T09:17:16;3.80;99.90
52643;DHT22;38531;53.296;6.614;2024-03-08T09:19:49;3.90;99.90
52643;DHT22;38531;53.296;6.614;2024-03-08T09:22:15;3.90;99.90
52643;DHT22;38531;53.296;6.614;2024-03-08T09:24:41;4.00;99.90
52643;DHT22;38531;53.296;6.614;2024-03-08T09:27:08;4.00;99.90
52643;DHT22;38531;53.296;6.614;2024-03-08T09:29:35;4.10;99.90
52643;DHT22;38531;53.296;6.614;2024-03-08T09:32:01;4.10;99.90
52643;DHT22;38531;53.296;6.614;2024-03-08T09:34:27;4.20;99.90
52643;DHT22;38531;53.296;6.614;2024-03-08T09:36:53;4.30;99.90
52643;DHT22;38531;53.296;6.614;2024-03-08T09:39:19;4.40;99.90
52643;DHT22;38531;53.296;6.614;2024-03-08T09:41:46;4.50;99.90
52643;DHT22;38531;53.296;6.614;2024-03-08T09:44:15;4.60;99.90
52643;DHT22;38531;53.296;6.614;2024-03-08T09:46:42;4.60;99.90
52643;DHT22;38531;53.296;6.614;2024-03-08T09:49:08;4.70;99.90
52643;DHT22;38531;53.296;6.614;2024-03-08T09:51:34;4.60;99.90
52643;DHT22;38531;53.296;6.614;2024-03-08T09:54:05;4.60;99.90
52643;DHT22;38531;53.296;6.614;2024-03-08T09:56:41;4.70;99.90
52643;DHT22;38531;53.296;6.614;2024-03-08T09:59:10;4.70;99.90
52643;DHT22;38531;53.296;6.614;2024-03-08T10:01:51;4.60;99.90
52643;DHT22;38531;53.296;6.614;2024-03-08T10:04:24;4.70;99.90
52643;DHT22;38531;53.296;6.614;2024-03-08T10:06:51;4.30;99.90
52643;DHT22;38531;53.296;6.614;2024-03-08T10:09:17;4.90;99.90
52643;DHT22;38531;53.296;6.614;2024-03-08T10:11:45;4.90;99.90
52643;DHT22;38531;53.296;6.614;2024-03-08T10:14:11;4.90;99.90
52643;DHT22;38531;53.296;6.614;2024-03-08T10:16:38;5.00;99.90
52643;DHT22;38531;53.296;6.614;2024-03-08T10:19:05;5.10;99.90
52643;DHT22;38531;53.296;6.614;2024-03-08T10:21:32;5.10;99.90
52643;DHT22;38531;53.296;6.614;2024-03-08T10:24:02;5.20;99.90
52643;DHT22;38531;53.296;6.614;2024-03-08T10:26:28;5.40;99.90
52643;DHT22;38531;53.296;6.614;2024-03-08T10:28:54;5.40;99.90
52643;DHT22;38531;53.296;6.614;2024-03-08T10:31:20;5.40;99.90
52643;DHT22;38531;53.296;6.614;2024-03-08T10:33:47;5.30;99.90
52643;DHT22;38531;53.296;6.614;2024-03-08T10:36:13;5.40;99.90
52643;DHT22;38531;53.296;6.614;2024-03-08T10:38:41;5.50;99.90
52643;DHT22;38531;53.296;6.614;2024-03-08T10:41:10;5.50;99.90
52643;DHT22;38531;53.296;6.614;2024-03-08T10:43:52;5.70;99.90
52643;DHT22;38531;53.296;6.614;2024-03-08T10:46:42;5.70;99.90
52643;DHT22;38531;53.296;6.614;2024-03-08T10:49:15;5.70;99.90
52643;DHT22;38531;53.296;6.614;2024-03-08T10:51:43;5.80;99.90
52643;DHT22;38531;53.296;6.614;2024-03-08T10:54:10;5.90;99.90
52643;DHT22;38531;53.296;6.614;2024-03-08T10:56:37;6.30;99.90
52643;DHT22;38531;53.296;6.614;2024-03-08T10:59:07;6.40;99.90
52643;DHT22;38531;53.296;6.614;2024-03-08T11:01:34;6.30;99.90
52643;DHT22;38531;53.296;6.614;2024-03-08T11:04:04;6.40;99.90
52643;DHT22;38531;53.296;6.614;2024-03-08T11:08:57;6.50;99.90
52643;DHT22;38531;53.296;6.614;2024-03-08T11:11:31;6.60;99.90
52643;DHT22;38531;53.296;6.614;2024-03-08T11:13:58;6.60;99.90
52643;DHT22;38531;53.296;6.614;2024-03-08T11:19:01;6.80;99.90
52643;DHT22;38531;53.296;6.614;2024-03-08T11:21:34;6.80;99.90
52643;DHT22;38531;53.296;6.614;2024-03-08T11:24:00;6.90;99.90
52643;DHT22;38531;53.296;6.614;2024-03-08T11:26:26;6.80;99.90
52643;DHT22;38531;53.296;6.614;2024-03-08T11:28:52;7.00;99.90
52643;DHT22;38531;53.296;6.614;2024-03-08T11:33:49;7.00;99.90
52643;DHT22;38531;53.296;6.614;2024-03-08T11:36:23;7.20;99.90
52643;DHT22;38531;53.296;6.614;2024-03-08T11:38:53;7.10;99.90
52643;DHT22;38531;53.296;6.614;2024-03-08T11:41:22;7.20;99.90
52643;DHT22;38531;53.296;6.614;2024-03-08T11:43:49;7.30;99.90
52643;DHT22;38531;53.296;6.614;2024-03-08T11:46:16;7.30;99.90
52643;DHT22;38531;53.296;6.614;2024-03-08T11:48:44;7.50;99.90
52643;DHT22;38531;53.296;6.614;2024-03-08T11:51:14;7.50;99.90
52643;DHT22;38531;53.296;6.614;2024-03-08T11:53:41;7.70;99.90
52643;DHT22;38531;53.296;6.614;2024-03-08T11:56:11;7.70;99.90
52643;DHT22;38531;53.296;6.614;2024-03-08T11:58:41;7.70;99.90
52643;DHT22;38531;53.296;6.614;2024-03-08T12:01:08;7.70;99.90
52643;DHT22;38531;53.296;6.614;2024-03-08T12:03:42;7.70;99.90
52643;DHT22;38531;53.296;6.614;2024-03-08T12:06:08;7.80;99.90
52643;DHT22;38531;53.296;6.614;2024-03-08T12:08:35;7.90;99.90
52643;DHT22;38531;53.296;6.614;2024-03-08T12:11:04;7.80;99.90
52643;DHT22;38531;53.296;6.614;2024-03-08T12:13:34;7.90;99.90
52643;DHT22;38531;53.296;6.614;2024-03-08T12:16:03;7.90;99.90
52643;DHT22;38531;53.296;6.614;2024-03-08T12:18:33;8.10;99.90
52643;DHT22;38531;53.296;6.614;2024-03-08T12:21:16;8.00;99.90
52643;DHT22;38531;53.296;6.614;2024-03-08T12:24:09;8.00;99.90
52643;DHT22;38531;53.296;6.614;2024-03-08T12:26:39;8.10;99.90
52643;DHT22;38531;53.296;6.614;2024-03-08T12:29:23;8.10;99.90
52643;DHT22;38531;53.296;6.614;2024-03-08T12:31:55;8.30;99.90
52643;DHT22;38531;53.296;6.614;2024-03-08T12:34:23;8.20;99.90
52643;DHT22;38531;53.296;6.614;2024-03-08T12:36:50;8.40;99.90
52643;DHT22;38531;53.296;6.614;2024-03-08T12:39:21;8.50;99.90
52643;DHT22;38531;53.296;6.614;2024-03-08T12:41:55;8.60;99.90
52643;DHT22;38531;53.296;6.614;2024-03-08T12:44:22;8.60;99.90
52643;DHT22;38531;53.296;6.614;2024-03-08T12:46:48;8.50;99.90
52643;DHT22;38531;53.296;6.614;2024-03-08T12:49:14;8.50;99.90
52643;DHT22;38531;53.296;6.614;2024-03-08T12:51:46;8.40;99.90
52643;DHT22;38531;53.296;6.614;2024-03-08T12:54:12;8.70;99.90
52643;DHT22;38531;53.296;6.614;2024-03-08T12:56:38;8.70;99.90
52643;DHT22;38531;53.296;6.614;2024-03-08T12:59:06;8.60;99.90
52643;DHT22;38531;53.296;6.614;2024-03-08T13:01:33;8.50;99.90
52643;DHT22;38531;53.296;6.614;2024-03-08T13:04:00;8.60;99.90
52643;DHT22;38531;53.296;6.614;2024-03-08T13:06:28;8.80;99.90
52643;DHT22;38531;53.296;6.614;2024-03-08T13:08:57;8.80;99.90
52643;DHT22;38531;53.296;6.614;2024-03-08T13:11:24;8.90;99.90
52643;DHT22;38531;53.296;6.614;2024-03-08T13:13:51;8.90;99.90
52643;DHT22;38531;53.296;6.614;2024-03-08T13:16:16;9.00;99.90
52643;DHT22;38531;53.296;6.614;2024-03-08T13:18:45;9.10;99.90
52643;DHT22;38531;53.296;6.614;2024-03-08T13:21:11;9.10;99.90
52643;DHT22;38531;53.296;6.614;2024-03-08T13:23:40;9.20;99.90
52643;DHT22;38531;53.296;6.614;2024-03-08T13:26:07;9.10;99.90
52643;DHT22;38531;53.296;6.614;2024-03-08T13:28:33;9.10;99.90
52643;DHT22;38531;53.296;6.614;2024-03-08T13:31:05;9.10;99.90
52643;DHT22;38531;53.296;6.614;2024-03-08T13:33:38;9.10;99.90
52643;DHT22;38531;53.296;6.614;2024-03-08T13:36:12;9.10;99.90
52643;DHT22;38531;53.296;6.614;2024-03-08T13:38:46;9.10;99.90
52643;DHT22;38531;53.296;6.614;2024-03-08T13:41:12;9.10;99.90
52643;DHT22;38531;53.296;6.614;2024-03-08T13:43:47;9.10;99.90
52643;DHT22;38531;53.296;6.614;2024-03-08T13:46:16;9.20;99.90
52643;DHT22;38531;53.296;6.614;2024-03-08T13:48:42;9.30;99.90
52643;DHT22;38531;53.296;6.614;2024-03-08T13:51:09;9.30;99.90
52643;DHT22;38531;53.296;6.614;2024-03-08T13:53:40;9.30;99.90
52643;DHT22;38531;53.296;6.614;2024-03-08T13:56:06;9.10;99.90
52643;DHT22;38531;53.296;6.614;2024-03-08T13:58:33;9.20;99.90
52643;DHT22;38531;53.296;6.614;2024-03-08T14:01:00;9.20;99.90
52643;DHT22;38531;53.296;6.614;2024-03-08T14:03:28;9.00;99.90
52643;DHT22;38531;53.296;6.614;2024-03-08T14:05:54;9.00;99.90
52643;DHT22;38531;53.296;6.614;2024-03-08T14:08:24;9.20;99.90
52643;DHT22;38531;53.296;6.614;2024-03-08T14:10:52;9.20;99.90
52643;DHT22;38531;53.296;6.614;2024-03-08T14:13:19;9.10;99.90
52643;DHT22;38531;53.296;6.614;2024-03-08T14:15:49;9.10;99.90
52643;DHT22;38531;53.296;6.614;2024-03-08T14:18:14;9.00;99.90
52643;DHT22;38531;53.296;6.614;2024-03-08T14:20:41;8.90;99.90
52643;DHT22;38531;53.296;6.614;2024-03-08T14:23:07;8.90;99.90
52643;DHT22;38531;53.296;6.614;2024-03-08T14:25:33;8.90;99.90
52643;DHT22;38531;53.296;6.614;2024-03-08T14:27:59;9.00;99.90
52643;DHT22;38531;53.296;6.614;2024-03-08T14:30:27;8.90;99.90
52643;DHT22;38531;53.296;6.614;2024-03-08T14:33:07;8.80;99.90
52643;DHT22;38531;53.296;6.614;2024-03-08T14:35:37;8.80;99.90
52643;DHT22;38531;53.296;6.614;2024-03-08T14:38:03;8.70;99.90
52643;DHT22;38531;53.296;6.614;2024-03-08T14:40:29;8.70;99.90
52643;DHT22;38531;53.296;6.614;2024-03-08T14:42:56;8.60;99.90
52643;DHT22;38531;53.296;6.614;2024-03-08T14:45:22;8.60;99.90
52643;DHT22;38531;53.296;6.614;2024-03-08T14:47:50;8.50;99.90
52643;DHT22;38531;53.296;6.614;2024-03-08T14:50:20;8.40;99.90
52643;DHT22;38531;53.296;6.614;2024-03-08T14:52:48;8.40;99.90
52643;DHT22;38531;53.296;6.614;2024-03-08T14:55:14;8.20;99.90
52643;DHT22;38531;53.296;6.614;2024-03-08T14:57:41;8.10;99.90
52643;DHT22;38531;53.296;6.614;2024-03-08T15:00:08;8.20;99.90
52643;DHT22;38531;53.296;6.614;2024-03-08T15:02:42;8.10;99.90
52643;DHT22;38531;53.296;6.614;2024-03-08T15:05:08;8.10;99.90
52643;DHT22;38531;53.296;6.614;2024-03-08T15:07:40;8.10;99.90
52643;DHT22;38531;53.296;6.614;2024-03-08T15:10:09;8.10;99.90
52643;DHT22;38531;53.296;6.614;2024-03-08T15:12:41;8.10;99.90
52643;DHT22;38531;53.296;6.614;2024-03-08T15:15:12;8.00;99.90
52643;DHT22;38531;53.296;6.614;2024-03-08T15:17:39;7.90;99.90
52643;DHT22;38531;53.296;6.614;2024-03-08T15:20:09;8.00;99.90
52643;DHT22;38531;53.296;6.614;2024-03-08T15:22:47;7.90;99.90
52643;DHT22;38531;53.296;6.614;2024-03-08T15:25:13;7.90;99.90
52643;DHT22;38531;53.296;6.614;2024-03-08T15:27:46;7.80;99.90
52643;DHT22;38531;53.296;6.614;2024-03-08T15:30:12;7.80;99.90
52643;DHT22;38531;53.296;6.614;2024-03-08T15:32:45;7.70;99.90
52643;DHT22;38531;53.296;6.614;2024-03-08T15:35:13;7.70;99.90
52643;DHT22;38531;53.296;6.614;2024-03-08T15:37:43;7.70;99.90
52643;DHT22;38531;53.296;6.614;2024-03-08T15:40:13;7.70;99.90
52643;DHT22;38531;53.296;6.614;2024-03-08T15:42:48;7.60;99.90
52643;DHT22;38531;53.296;6.614;2024-03-08T15:45:16;7.50;99.90
52643;DHT22;38531;53.296;6.614;2024-03-08T15:47:42;7.50;99.90
52643;DHT22;38531;53.296;6.614;2024-03-08T15:50:10;7.50;99.90
52643;DHT22;38531;53.296;6.614;2024-03-08T15:52:43;7.50;99.90
52643;DHT22;38531;53.296;6.614;2024-03-08T15:55:14;7.50;99.90
52643;DHT22;38531;53.296;6.614;2024-03-08T15:57:48;7.40;99.90
52643;DHT22;38531;53.296;6.614;2024-03-08T16:00:15;7.40;99.90
52643;DHT22;38531;53.296;6.614;2024-03-08T16:02:49;7.40;99.90